Oceania — SQOC — position and weather

sailwx.info

Track history (hours):
 
Tides and Currents Weather Stations Pressure Air Temp Water Temp Dewpoint Dewpoint Depression Visibility Wind Speed Wind Dir Waves Ship Positions

Oceanographic research ship Oceania (Poland)

Detailed information on ship capabilities available from University of Delaware's Ocean Information Center and ARCUS's ALIAS (Arctic Logistics Information and Support) project.

Last reported at 2019-Aug-18 19:00 UTC. Time now 2019-Aug-24 09:06 UTC.
Position N 73°59' E 018°10'.

Length 49 m; beam 9 m.

Type: Sailing vessel. MMSI: 261000142.

Date/timePositionNaut miles runAvg speedWind from/ knotsBaromVisibWave heightAir tempDewpointWater temp
2019-Aug-18 19:00N 73°59' E 018°10'510.5
2019-Aug-18 18:30N 74°03' E 018°21'5 9.8
2019-Aug-18 18:00N 74°07' E 018°31'5 9.9
2019-Aug-18 17:30N 74°12' E 018°40'5 9.3
2019-Aug-18 17:00N 74°16' E 018°48'5 9.4
2019-Aug-18 16:30N 74°20' E 018°56'2 3.1
2019-Aug-18 16:00N 74°21' E 018°53'1 2.3
2019-Aug-18 15:30N 74°22' E 018°52'1 1.1
2019-Aug-18 15:00N 74°23' E 018°52'1 2.3
2019-Aug-18 14:30N 74°23' E 018°48'0 0.3
2019-Aug-18 14:00N 74°23' E 018°48'0 0.3
2019-Aug-18 13:29N 74°23' E 018°48'0 0.4
2019-Aug-18 13:00N 74°23' E 018°49'2 4.2
2019-Aug-18 12:30N 74°25' E 018°44'1 1.5
2019-Aug-18 12:00N 74°26' E 018°43'1 1.6
2019-Aug-18 11:30N 74°25' E 018°44'1 1.6
2019-Aug-18 10:59N 74°24' E 018°46'2 4.5
2019-Aug-18 10:30N 74°26' E 018°41'4 7.6
2019-Aug-18 10:00N 74°29' E 018°33'5 9.4
2019-Aug-18 09:30N 74°34' E 018°26'5 9.6
2019-Aug-18 09:00N 74°38' E 018°20'5 9.9
2019-Aug-18 08:30N 74°43' E 018°14'510.0
2019-Aug-18 08:00N 74°47' E 018°07'10 9.9
2019-Aug-18 07:00N 74°57' E 017°54'105 9.8
2019-Aug-17 20:17N 76°35' E 015°28'3 9.4
2019-Aug-17 20:00N 76°38' E 015°24'5 9.4
2019-Aug-17 19:30N 76°42' E 015°16'4 8.9
2019-Aug-17 19:00N 76°47' E 015°10'5 9.0
2019-Aug-17 18:29N 76°51' E 015°03'6 6.0
2019-Aug-17 17:29N 76°56' E 014°54'0 0.0
2019-Aug-17 16:59N 76°56' E 014°54'0 0.0
2019-Aug-17 16:29N 76°56' E 014°54'0 0.0
2019-Aug-17 15:59N 76°56' E 014°54'0 0.1
2019-Aug-17 15:29N 76°56' E 014°54'0 0.1
2019-Aug-17 14:59N 76°56' E 014°54'3 6.9
2019-Aug-17 14:30N 76°57' E 015°09'5 9.4
2019-Aug-17 14:00N 76°58' E 015°30'2 4.1
2019-Aug-17 13:30N 76°58' E 015°38'0 0.2
2019-Aug-17 13:00N 76°58' E 015°39'0 0.0
2019-Aug-17 12:30N 76°58' E 015°39'0 0.0
2019-Aug-17 12:00N 76°58' E 015°39'0 0.0
2019-Aug-17 11:30N 76°58' E 015°39'0 0.0
2019-Aug-17 11:00N 76°58' E 015°39'0 0.0
2019-Aug-17 10:30N 76°58' E 015°39'0 0.0
2019-Aug-17 10:00N 76°58' E 015°39'0 0.0
2019-Aug-17 09:30N 76°58' E 015°39'0 0.0
2019-Aug-17 09:00N 76°58' E 015°39'0 0.5
2019-Aug-17 08:19N 76°58' E 015°37'1 2.9
2019-Aug-17 08:00N 76°58' E 015°41'2 4.7
2019-Aug-17 07:30N 76°60' E 015°35'0 0.4
2019-Aug-17 07:00N 76°60' E 015°36'0 0.5
2019-Aug-17 06:30N 76°60' E 015°37'1 1.3
2019-Aug-17 05:58N 77°00' E 015°35'0 0.0
2019-Aug-17 05:28N 77°00' E 015°35'0 0.0
2019-Aug-17 04:58N 77°00' E 015°35'0 0.0
2019-Aug-17 04:28N 77°00' E 015°35'0 0.0
2019-Aug-17 03:58N 77°00' E 015°35'0 0.0
2019-Aug-17 03:28N 77°00' E 015°35'0 0.0
2019-Aug-17 02:58N 77°00' E 015°35'0 0.0
2019-Aug-17 02:28N 77°00' E 015°35'0 0.0
2019-Aug-17 01:58N 77°00' E 015°35'0 0.0
2019-Aug-17 01:28N 77°00' E 015°35'0 0.0
2019-Aug-17 00:58N 77°00' E 015°35'0 0.0
2019-Aug-17 00:28N 77°00' E 015°35'0 0.0
2019-Aug-16 23:58N 77°00' E 015°35'0 0.0
2019-Aug-16 23:28N 77°00' E 015°35'0 0.0
2019-Aug-16 22:58N 77°00' E 015°35'0 0.0
2019-Aug-16 22:28N 77°00' E 015°35'0 0.0
2019-Aug-16 21:58N 77°00' E 015°35'0 0.0
2019-Aug-16 21:28N 77°00' E 015°35'0 0.0
2019-Aug-16 20:58N 77°00' E 015°35'0 0.0
2019-Aug-16 20:28N 77°00' E 015°35'0 0.0
2019-Aug-16 19:58N 77°00' E 015°35'0 0.3
2019-Aug-16 19:30N 76°60' E 015°35'4 8.2
2019-Aug-16 19:00N 76°58' E 015°18'5 9.4
2019-Aug-16 18:30N 76°57' E 014°58'3 5.0
2019-Aug-16 18:00N 76°57' E 014°47'1 2.0
2019-Aug-16 17:29N 76°56' E 014°51'1 1.9
2019-Aug-16 16:59N 76°56' E 014°55'2 3.2
2019-Aug-16 16:30N 76°57' E 015°02'4 9.0
2019-Aug-16 16:00N 76°58' E 015°21'4 7.3
2019-Aug-16 15:29N 76°58' E 015°38'1 1.9
2019-Aug-16 15:00N 76°58' E 015°41'1 1.2
2019-Aug-16 14:29N 76°58' E 015°39'0 0.8
2019-Aug-16 14:00N 76°58' E 015°37'1 1.9
2019-Aug-16 13:30N 76°59' E 015°36'1 1.1
2019-Aug-16 13:00N 76°60' E 015°35'0 0.2
2019-Aug-16 12:30N 76°59' E 015°35'0 0.2
2019-Aug-16 12:00N 76°60' E 015°35'0 0.3
2019-Aug-16 11:30N 76°60' E 015°35'0 0.1
2019-Aug-16 11:00N 76°60' E 015°35'0 0.1
2019-Aug-16 10:30N 76°60' E 015°35'1 2.5
2019-Aug-16 10:00N 76°58' E 015°33'2 3.7
2019-Aug-16 09:30N 76°57' E 015°28'0 0.5
2019-Aug-16 09:00N 76°57' E 015°28'0 0.5
2019-Aug-16 08:29N 76°57' E 015°27'4 8.6
2019-Aug-16 08:00N 76°58' E 015°45'2 4.4
2019-Aug-16 07:30N 76°59' E 015°55'0 0.8
2019-Aug-16 07:00N 76°59' E 015°53'0 0.9
2019-Aug-16 06:30N 76°58' E 015°51'4 8.0
2019-Aug-16 05:59N 76°60' E 015°35'0 0.3
2019-Aug-16 05:30N 77°00' E 015°35'0 0.1
2019-Aug-16 05:00N 77°00' E 015°35'0 0.0
2019-Aug-16 04:30N 77°00' E 015°35'0 0.0
2019-Aug-16 04:00N 77°00' E 015°35'0 0.0
2019-Aug-16 03:30N 77°00' E 015°35'0 0.0
2019-Aug-16 03:00N 77°00' E 015°35'0 0.0
2019-Aug-16 02:30N 77°00' E 015°35'0 0.0
2019-Aug-16 02:00N 77°00' E 015°35'0 0.0
2019-Aug-16 01:30N 77°00' E 015°35'0 0.0
2019-Aug-16 01:00N 77°00' E 015°35'0 0.0
2019-Aug-16 00:30N 77°00' E 015°35'0 0.0
2019-Aug-16 00:00N 77°00' E 015°35'0 0.0
2019-Aug-15 23:30N 77°00' E 015°35'0 0.0
2019-Aug-15 23:00N 77°00' E 015°35'0 0.0
2019-Aug-15 22:30N 77°00' E 015°35'0 0.0
2019-Aug-15 22:00N 77°00' E 015°35'0 0.0
2019-Aug-15 21:30N 77°00' E 015°35'0 0.0
2019-Aug-15 21:00N 77°00' E 015°35'0 0.0
2019-Aug-15 20:30N 77°00' E 015°35'0 0.0
2019-Aug-15 20:00N 77°00' E 015°35'0 0.0
2019-Aug-15 19:30N 77°00' E 015°35'0 0.1
2019-Aug-15 19:00N 77°00' E 015°35'3 6.4
2019-Aug-15 18:30N 76°59' E 015°48'4 9.0
2019-Aug-15 18:00N 76°59' E 016°08'1 1.6
2019-Aug-15 17:29N 76°59' E 016°12'0 0.0
2019-Aug-15 16:59N 76°59' E 016°12'0 0.0
2019-Aug-15 16:29N 76°59' E 016°12'0 0.0
2019-Aug-15 15:59N 76°59' E 016°12'0 0.0
2019-Aug-15 15:29N 76°59' E 016°12'0 0.1
2019-Aug-15 14:59N 76°59' E 016°12'3 6.0
2019-Aug-15 14:30N 76°60' E 016°24'2 3.8
2019-Aug-15 14:00N 77°01' E 016°31'0 0.5
2019-Aug-15 13:30N 77°01' E 016°30'0 0.6
2019-Aug-15 12:59N 77°01' E 016°31'0 0.5
2019-Aug-15 12:29N 77°01' E 016°30'0 0.7
2019-Aug-15 12:00N 77°01' E 016°29'5 9.3
2019-Aug-15 11:30N 76°59' E 016°09'510.0
2019-Aug-15 11:00N 76°59' E 015°47'5 9.7
2019-Aug-15 10:30N 76°59' E 015°25'5 9.8
2019-Aug-15 10:00N 77°00' E 015°04'5 9.8
2019-Aug-15 09:30N 77°02' E 014°45'5 9.3
2019-Aug-15 08:57N 77°05' E 014°25'510.1
2019-Aug-15 08:30N 77°07' E 014°08'5 9.4
2019-Aug-15 07:56N 77°12' E 013°58'4 9.8
2019-Aug-15 07:30N 77°16' E 013°52'5 9.5
2019-Aug-15 06:59N 77°21' E 013°45'5 9.6
2019-Aug-15 06:30N 77°25' E 013°39'5 9.6
2019-Aug-15 06:00N 77°30' E 013°35'5 9.6
2019-Aug-15 05:30N 77°35' E 013°30'5 9.6
2019-Aug-15 05:00N 77°39' E 013°25'5 9.6
2019-Aug-15 04:30N 77°44' E 013°21'5 9.5
2019-Aug-15 04:00N 77°49' E 013°17'5 9.4
2019-Aug-15 03:30N 77°53' E 013°12'5 9.3
2019-Aug-15 03:00N 77°58' E 013°07'4 8.8
2019-Aug-15 02:30N 78°02' E 013°14'5 9.3
2019-Aug-15 02:00N 78°06' E 013°28'5 9.0
2019-Aug-15 01:26N 78°07' E 013°51'4 9.1
2019-Aug-15 00:57N 78°09' E 014°11'4 9.1
2019-Aug-15 00:30N 78°11' E 014°29'5 9.5
2019-Aug-14 23:57N 78°13' E 014°52'6 9.3
2019-Aug-14 23:21N 78°15' E 015°17'3 8.8
2019-Aug-14 23:00N 78°15' E 015°33'2 3.5
2019-Aug-14 22:30N 78°14' E 015°39'0 0.0
2019-Aug-14 22:00N 78°14' E 015°39'0 0.0
2019-Aug-14 21:30N 78°14' E 015°39'0 0.0
2019-Aug-14 21:00N 78°14' E 015°39'0 0.1
2019-Aug-14 20:30N 78°14' E 015°39'0 0.0
2019-Aug-14 20:00N 78°14' E 015°39'1 2.8
2019-Aug-14 19:29N 78°15' E 015°33'0 0.1
2019-Aug-14 18:59N 78°15' E 015°33'0 0.0
2019-Aug-14 18:29N 78°15' E 015°33'1 2.2
2019-Aug-14 18:00N 78°14' E 015°36'0 0.0
2019-Aug-14 17:30N 78°14' E 015°36'0 0.0
2019-Aug-14 17:00N 78°14' E 015°36'0 0.8
2019-Aug-14 16:30N 78°14' E 015°37'0 0.6
2019-Aug-14 16:00N 78°14' E 015°37'0 0.1
2019-Aug-14 15:29N 78°14' E 015°37'0 0.0
2019-Aug-14 14:59N 78°14' E 015°37'0 0.0
2019-Aug-14 14:29N 78°14' E 015°37'0 0.0
2019-Aug-14 13:59N 78°14' E 015°37'0 0.0
2019-Aug-14 13:29N 78°14' E 015°37'0 0.0
2019-Aug-14 12:59N 78°14' E 015°37'0 0.0
2019-Aug-14 12:29N 78°14' E 015°37'0 0.1
2019-Aug-14 11:59N 78°14' E 015°37'0 0.1
2019-Aug-14 11:29N 78°14' E 015°37'0 0.0
2019-Aug-14 10:59N 78°14' E 015°37'0 0.0
2019-Aug-14 10:29N 78°14' E 015°37'0 0.0
2019-Aug-14 09:59N 78°14' E 015°37'0 0.0
2019-Aug-14 09:29N 78°14' E 015°37'0 0.0
2019-Aug-14 08:59N 78°14' E 015°37'0 0.0
2019-Aug-14 08:29N 78°14' E 015°37'0 0.0
2019-Aug-14 07:59N 78°14' E 015°37'0 0.1
2019-Aug-14 07:29N 78°14' E 015°37'0 0.7
2019-Aug-14 07:00N 78°14' E 015°38'0 0.0
2019-Aug-14 06:30N 78°14' E 015°38'0 0.0
2019-Aug-14 06:00N 78°14' E 015°38'0 0.0
2019-Aug-14 05:30N 78°14' E 015°38'0 0.0
2019-Aug-14 05:00N 78°14' E 015°38'0 0.0
2019-Aug-14 04:30N 78°14' E 015°38'0 0.0
2019-Aug-14 04:00N 78°14' E 015°38'0 0.0
2019-Aug-14 03:30N 78°14' E 015°38'0 0.0
2019-Aug-14 03:00N 78°14' E 015°38'0 0.0
2019-Aug-14 02:30N 78°14' E 015°38'0 0.0
2019-Aug-14 02:00N 78°14' E 015°38'0 0.1
2019-Aug-14 01:30N 78°14' E 015°38'0 0.0
2019-Aug-14 01:00N 78°14' E 015°38'0 0.1
2019-Aug-14 00:30N 78°14' E 015°38'0 0.2
2019-Aug-14 00:00N 78°14' E 015°37'0 0.0
2019-Aug-13 23:30N 78°14' E 015°37'0 0.0
2019-Aug-13 23:00N 78°14' E 015°37'0 0.0
2019-Aug-13 22:30N 78°14' E 015°37'0 0.0
2019-Aug-13 22:00N 78°14' E 015°37'0 0.0
2019-Aug-13 21:30N 78°14' E 015°37'0 0.0
2019-Aug-13 21:00N 78°14' E 015°37'0 0.0
2019-Aug-13 20:30N 78°14' E 015°37'0 0.0
2019-Aug-13 20:00N 78°14' E 015°37'0 0.0
2019-Aug-13 19:30N 78°14' E 015°37'0 0.0
2019-Aug-13 19:00N 78°14' E 015°37'0 0.1
2019-Aug-13 18:30N 78°14' E 015°37'4 7.2
2019-Aug-13 18:00N 78°16' E 015°21'5 9.9
2019-Aug-13 17:30N 78°14' E 014°57'5 9.3
2019-Aug-13 17:00N 78°13' E 014°35'5 9.5
2019-Aug-13 16:30N 78°12' E 014°13'5 9.2
2019-Aug-13 16:00N 78°11' E 013°51'5 9.5
2019-Aug-13 15:30N 78°10' E 013°28'5 9.1
2019-Aug-13 14:58N 78°09' E 013°05'4 8.7
2019-Aug-13 14:29N 78°09' E 012°45'4 8.4
2019-Aug-13 14:00N 78°09' E 012°25'4 8.6
2019-Aug-13 13:30N 78°10' E 012°03'510.0
2019-Aug-13 13:00N 78°12' E 011°42'510.6
2019-Aug-13 12:30N 78°16' E 011°27'510.5
2019-Aug-13 12:00N 78°20' E 011°12'510.1
2019-Aug-13 11:30N 78°25' E 010°58'1010.1
2019-Aug-13 10:29N 78°33' E 010°31'510.1
2019-Aug-13 09:58N 78°38' E 010°24'14 9.8
2019-Aug-13 08:33N 78°52' E 010°20'0 9.7
2019-Aug-13 08:30N 78°53' E 010°20'4 8.9
2019-Aug-13 08:00N 78°56' E 010°36'5 9.5
2019-Aug-13 07:30N 78°58' E 010°59'5 9.3
2019-Aug-13 07:00N 78°59' E 011°23'4 8.3
2019-Aug-13 06:30N 78°58' E 011°44'3 6.7
2019-Aug-13 06:00N 78°56' E 011°56'0 0.0
2019-Aug-13 05:30N 78°56' E 011°56'0 0.0
2019-Aug-13 05:00N 78°56' E 011°56'0 0.0
2019-Aug-13 04:30N 78°56' E 011°56'0 0.0
2019-Aug-13 04:00N 78°56' E 011°56'0 0.0
2019-Aug-13 03:30N 78°56' E 011°56'0 0.0
2019-Aug-13 03:00N 78°56' E 011°56'0 0.0
2019-Aug-13 02:30N 78°56' E 011°56'0 0.0
2019-Aug-13 01:30N 78°56' E 011°56'0 0.0
2019-Aug-13 01:00N 78°56' E 011°56'0 0.0
2019-Aug-13 00:30N 78°56' E 011°56'0 0.0
2019-Aug-13 00:00N 78°56' E 011°56'0 0.0
2019-Aug-12 23:30N 78°56' E 011°56'0 0.0
2019-Aug-12 23:00N 78°56' E 011°56'0 0.0
2019-Aug-12 22:30N 78°56' E 011°56'0 0.0
2019-Aug-12 22:00N 78°56' E 011°56'0 0.0
2019-Aug-12 21:30N 78°56' E 011°56'0 0.0
2019-Aug-12 21:00N 78°56' E 011°56'0 0.0
2019-Aug-12 20:30N 78°56' E 011°56'0 0.0
2019-Aug-12 20:00N 78°56' E 011°56'0 0.0
2019-Aug-12 19:30N 78°56' E 011°56'0 0.0
2019-Aug-12 19:00N 78°56' E 011°56'0 0.0
2019-Aug-12 18:30N 78°56' E 011°56'0 0.0
2019-Aug-12 18:00N 78°56' E 011°56'0 0.0
2019-Aug-12 17:30N 78°56' E 011°56'0 0.0
2019-Aug-12 17:00N 78°56' E 011°56'0 0.0
2019-Aug-12 16:30N 78°56' E 011°56'0 0.0
2019-Aug-12 16:00N 78°56' E 011°56'0 0.0
2019-Aug-12 15:30N 78°56' E 011°56'0 0.0
2019-Aug-12 15:00N 78°56' E 011°56'0 0.0
2019-Aug-12 14:30N 78°56' E 011°56'0 0.0
2019-Aug-12 14:00N 78°56' E 011°56'0 0.0
2019-Aug-12 13:30N 78°56' E 011°56'0 0.0
2019-Aug-12 13:00N 78°56' E 011°56'0 0.0
2019-Aug-12 12:30N 78°56' E 011°56'0 0.0
2019-Aug-12 12:00N 78°56' E 011°56'0 0.0
2019-Aug-12 11:30N 78°56' E 011°56'0 0.0
2019-Aug-12 11:00N 78°56' E 011°56'0 0.0
2019-Aug-12 10:30N 78°56' E 011°56'0 0.0
2019-Aug-12 10:00N 78°56' E 011°56'0 0.0
2019-Aug-12 09:30N 78°56' E 011°56'3 5.8
2019-Aug-12 09:00N 78°59' E 011°56'1 2.8
2019-Aug-12 08:30N 78°60' E 012°00'1 3.0
2019-Aug-12 08:00N 79°00' E 011°53'4 8.1
2019-Aug-12 07:30N 79°03' E 011°36'1 1.9
2019-Aug-12 07:00N 79°02' E 011°34'1 1.9
2019-Aug-12 06:30N 79°01' E 011°31'1 1.8
2019-Aug-12 06:00N 79°01' E 011°29'1 2.1
2019-Aug-12 05:30N 78°60' E 011°26'1 1.1
2019-Aug-12 05:00N 78°59' E 011°24'1 2.5
2019-Aug-12 04:30N 79°01' E 011°24'2 3.1
2019-Aug-12 04:00N 79°00' E 011°32'2 4.3
2019-Aug-12 03:30N 78°59' E 011°41'2 4.2
2019-Aug-12 03:00N 78°58' E 011°51'2 4.2
2019-Aug-12 02:30N 78°57' E 011°60'2 4.5
2019-Aug-12 02:00N 78°55' E 012°08'2 4.6
2019-Aug-12 01:30N 78°54' E 012°18'2 3.3
2019-Aug-12 01:00N 78°53' E 012°26'0 0.2
2019-Aug-12 00:30N 78°53' E 012°26'0 1.0
2019-Aug-12 00:00N 78°54' E 012°27'0 0.2
2019-Aug-11 23:30N 78°54' E 012°28'0 0.0
2019-Aug-11 23:00N 78°54' E 012°28'0 0.0
2019-Aug-11 22:30N 78°54' E 012°28'0 0.0
2019-Aug-11 22:00N 78°54' E 012°28'1 1.9
2019-Aug-11 21:30N 78°53' E 012°30'0 0.1
2019-Aug-11 20:58N 78°53' E 012°30'0 0.0
2019-Aug-11 20:28N 78°53' E 012°30'0 0.7
2019-Aug-11 20:00N 78°53' E 012°29'3 5.7
2019-Aug-11 19:30N 78°54' E 012°16'5 9.8
2019-Aug-11 18:59N 78°57' E 011°54'1 2.4
2019-Aug-11 18:30N 78°58' E 011°49'1 1.1
2019-Aug-11 18:00N 78°58' E 011°47'0 1.0
2019-Aug-11 17:30N 78°58' E 011°45'0 0.9
2019-Aug-11 16:59N 78°59' E 011°43'1 1.6
2019-Aug-11 16:30N 78°59' E 011°39'3 5.5
2019-Aug-11 16:00N 79°00' E 011°27'0 1.0
2019-Aug-11 15:30N 79°01' E 011°26'1 1.0
2019-Aug-11 15:00N 79°00' E 011°27'0 0.5
2019-Aug-11 14:30N 78°60' E 011°27'0 0.9
2019-Aug-11 14:00N 79°00' E 011°26'0 0.9
2019-Aug-11 13:30N 79°01' E 011°26'3 6.5
2019-Aug-11 13:00N 78°59' E 011°41'4 8.4
2019-Aug-11 12:29N 78°57' E 012°01'0 0.3
2019-Aug-11 11:58N 78°57' E 012°02'0 0.0
2019-Aug-11 11:28N 78°57' E 012°02'0 0.0
2019-Aug-11 10:58N 78°57' E 012°02'0 0.0
2019-Aug-11 10:28N 78°57' E 012°02'0 0.0
2019-Aug-11 09:58N 78°57' E 012°02'0 0.0
2019-Aug-11 09:28N 78°57' E 012°02'0 0.0
2019-Aug-11 08:58N 78°57' E 012°02'0 0.0
2019-Aug-11 08:28N 78°57' E 012°02'0 0.2
2019-Aug-11 07:58N 78°57' E 012°02'0 0.1
2019-Aug-11 07:28N 78°57' E 012°01'0 0.0
2019-Aug-11 06:58N 78°57' E 012°01'0 0.0
2019-Aug-11 06:28N 78°57' E 012°01'0 0.0
2019-Aug-11 05:58N 78°57' E 012°01'0 0.0
2019-Aug-11 05:28N 78°57' E 012°01'2 4.0
2019-Aug-11 05:00N 78°56' E 011°56'0 0.1
2019-Aug-11 04:30N 78°56' E 011°56'0 0.0
2019-Aug-11 04:00N 78°56' E 011°56'0 0.1
2019-Aug-11 03:30N 78°56' E 011°56'0 0.0
2019-Aug-11 03:00N 78°56' E 011°56'0 0.0
2019-Aug-11 02:30N 78°56' E 011°56'0 0.0
2019-Aug-11 02:00N 78°56' E 011°56'0 0.0
2019-Aug-11 01:30N 78°56' E 011°56'0 0.0
2019-Aug-11 01:00N 78°56' E 011°56'0 0.0
2019-Aug-11 00:30N 78°56' E 011°56'0 0.0
2019-Aug-11 00:00N 78°56' E 011°56'0 0.0
2019-Aug-10 23:30N 78°56' E 011°56'0 0.0
2019-Aug-10 23:00N 78°56' E 011°56'0 0.0
2019-Aug-10 22:30N 78°56' E 011°56'0 0.0
2019-Aug-10 22:00N 78°56' E 011°56'0 0.0
2019-Aug-10 21:30N 78°56' E 011°56'0 0.0
2019-Aug-10 21:00N 78°56' E 011°56'0 0.0
2019-Aug-10 20:30N 78°56' E 011°56'0 0.0
2019-Aug-10 20:00N 78°56' E 011°56'0 0.0
2019-Aug-10 19:30N 78°56' E 011°56'0 0.0
2019-Aug-10 19:00N 78°56' E 011°56'0 0.0
2019-Aug-10 18:30N 78°56' E 011°56'0 0.0
2019-Aug-10 18:00N 78°56' E 011°56'0 0.0
2019-Aug-10 17:30N 78°56' E 011°56'0 0.1
2019-Aug-10 17:00N 78°56' E 011°55'0 0.0
2019-Aug-10 16:30N 78°56' E 011°55'0 0.1
2019-Aug-10 16:00N 78°56' E 011°56'1 2.9
2019-Aug-10 15:30N 78°57' E 011°54'2 4.9
2019-Aug-10 15:00N 78°60' E 011°53'1 1.9
2019-Aug-10 14:30N 78°60' E 011°58'1 1.1
2019-Aug-10 14:00N 78°60' E 012°01'0 0.0
2019-Aug-10 13:30N 78°60' E 012°01'0 0.0
2019-Aug-10 12:59N 78°60' E 012°01'0 0.7
2019-Aug-10 12:29N 78°60' E 011°59'3 6.9
2019-Aug-10 12:00N 78°57' E 012°04'2 3.4
2019-Aug-10 11:30N 78°57' E 012°13'0 0.4
2019-Aug-10 10:58N 78°57' E 012°14'0 0.0
2019-Aug-10 10:28N 78°57' E 012°14'0 0.0
2019-Aug-10 09:58N 78°57' E 012°14'0 0.1
2019-Aug-10 09:28N 78°57' E 012°14'0 0.0
2019-Aug-10 08:58N 78°57' E 012°14'0 0.1
2019-Aug-10 08:28N 78°57' E 012°14'0 0.0
2019-Aug-10 07:58N 78°57' E 012°14'0 0.0
2019-Aug-10 07:28N 78°57' E 012°14'0 0.1
2019-Aug-10 06:58N 78°57' E 012°14'0 0.1
2019-Aug-10 06:30N 78°57' E 012°14'1 2.1
2019-Aug-10 06:00N 78°56' E 012°10'0 0.8
2019-Aug-10 05:29N 78°56' E 012°08'0 0.0
2019-Aug-10 04:59N 78°56' E 012°08'0 0.0
2019-Aug-10 04:29N 78°56' E 012°08'0 0.0
2019-Aug-10 03:59N 78°56' E 012°08'0 0.1
2019-Aug-10 03:29N 78°56' E 012°08'0 0.0
2019-Aug-10 02:59N 78°56' E 012°08'0 0.0
2019-Aug-10 02:29N 78°56' E 012°08'0 0.0
2019-Aug-10 01:59N 78°56' E 012°08'0 0.0
2019-Aug-10 01:29N 78°56' E 012°08'0 0.2
2019-Aug-10 00:59N 78°56' E 012°08'0 0.3
2019-Aug-10 00:29N 78°56' E 012°07'0 0.0
2019-Aug-09 23:59N 78°56' E 012°07'0 0.0
2019-Aug-09 23:29N 78°56' E 012°07'0 0.0
2019-Aug-09 22:59N 78°56' E 012°07'0 0.1
2019-Aug-09 22:29N 78°56' E 012°07'1 2.7
2019-Aug-09 22:00N 78°55' E 012°11'2 4.0
2019-Aug-09 21:30N 78°54' E 012°20'0 0.1
2019-Aug-09 20:59N 78°54' E 012°20'0 0.0
2019-Aug-09 20:29N 78°54' E 012°20'0 0.0
2019-Aug-09 19:59N 78°54' E 012°20'0 0.6
2019-Aug-09 19:30N 78°54' E 012°19'1 1.9
2019-Aug-09 19:00N 78°55' E 012°15'2 3.3
2019-Aug-09 18:30N 78°56' E 012°09'2 4.5
2019-Aug-09 18:00N 78°57' E 012°00'1 2.1
2019-Aug-09 17:29N 78°56' E 011°58'1 1.1
2019-Aug-09 17:00N 78°56' E 011°55'3 6.3
2019-Aug-09 16:30N 78°59' E 011°52'2 3.4
2019-Aug-09 15:59N 79°01' E 011°48'1 2.2
2019-Aug-09 15:30N 79°00' E 011°45'1 2.4
2019-Aug-09 14:59N 78°59' E 011°41'1 2.0
2019-Aug-09 14:30N 78°58' E 011°38'4 7.7
2019-Aug-09 14:00N 79°00' E 011°22'3 6.5
2019-Aug-09 13:29N 79°02' E 011°08'0 0.0
2019-Aug-09 12:59N 79°02' E 011°08'0 0.0
2019-Aug-09 12:29N 79°03' E 011°08'0 0.0
2019-Aug-09 11:59N 79°03' E 011°08'0 0.0
2019-Aug-09 11:29N 79°03' E 011°08'0 0.0
2019-Aug-09 10:59N 79°02' E 011°08'0 0.0
2019-Aug-09 10:29N 79°03' E 011°08'0 0.0
2019-Aug-09 09:59N 79°03' E 011°08'0 0.0
2019-Aug-09 09:29N 79°03' E 011°08'0 0.0
2019-Aug-09 08:59N 79°03' E 011°08'0 0.0
2019-Aug-09 08:29N 79°03' E 011°08'0 0.0
2019-Aug-09 07:59N 79°03' E 011°08'0 0.1
2019-Aug-09 07:29N 79°03' E 011°08'3 6.2
2019-Aug-09 06:59N 79°01' E 011°22'3 5.4
2019-Aug-09 06:28N 78°59' E 011°34'0 0.0
2019-Aug-09 05:58N 78°59' E 011°34'0 0.0
2019-Aug-09 05:28N 78°59' E 011°34'0 0.0
2019-Aug-09 04:58N 78°59' E 011°34'0 0.0
2019-Aug-09 04:28N 78°59' E 011°34'1 1.3
2019-Aug-09 04:00N 78°60' E 011°37'3 5.7
2019-Aug-09 03:29N 78°58' E 011°51'0 0.1
2019-Aug-09 02:59N 78°58' E 011°51'0 0.0
2019-Aug-09 01:59N 78°58' E 011°51'0 0.1
2019-Aug-09 01:29N 78°58' E 011°50'0 0.2
2019-Aug-09 01:00N 78°58' E 011°51'4 7.5
2019-Aug-09 00:30N 78°60' E 011°34'3 5.8
2019-Aug-09 00:00N 79°01' E 011°20'2 4.7
2019-Aug-08 23:30N 79°02' E 011°10'2 4.6
2019-Aug-08 23:00N 79°02' E 010°58'2 4.7
2019-Aug-08 22:30N 79°01' E 010°45'2 4.8
2019-Aug-08 22:00N 79°01' E 010°34'2 4.8
2019-Aug-08 21:30N 79°00' E 010°21'2 4.9
2019-Aug-08 21:00N 78°60' E 010°09'2 4.9
2019-Aug-08 20:30N 78°59' E 009°56'2 4.8
2019-Aug-08 20:00N 78°59' E 009°44'2 4.7
2019-Aug-08 19:30N 78°59' E 009°31'  
Track history (hours):
 
Tides and Currents Weather Stations Pressure Air Temp Water Temp Dewpoint Dewpoint Depression Visibility Wind Speed Wind Dir Waves Ship Positions

Oceanographic research ship Oceania (Poland)

Detailed information on ship capabilities available from University of Delaware's Ocean Information Center and ARCUS's ALIAS (Arctic Logistics Information and Support) project.

Last reported at 2019-Aug-18 19:00 UTC. Time now 2019-Aug-24 09:06 UTC.
Position N 73°59' E 018°10'.

Length 49 m; beam 9 m.

Type: Sailing vessel. MMSI: 261000142.

Date/timePositionNaut miles runAvg speedWind from/ knotsBaromVisibWave heightAir tempDewpointWater temp
2019-Aug-18 19:00N 73°59' E 018°10'510.5
2019-Aug-18 18:30N 74°03' E 018°21'5 9.8
2019-Aug-18 18:00N 74°07' E 018°31'5 9.9
2019-Aug-18 17:30N 74°12' E 018°40'5 9.3
2019-Aug-18 17:00N 74°16' E 018°48'5 9.4
2019-Aug-18 16:30N 74°20' E 018°56'2 3.1
2019-Aug-18 16:00N 74°21' E 018°53'1 2.3
2019-Aug-18 15:30N 74°22' E 018°52'1 1.1
2019-Aug-18 15:00N 74°23' E 018°52'1 2.3
2019-Aug-18 14:30N 74°23' E 018°48'0 0.3
2019-Aug-18 14:00N 74°23' E 018°48'0 0.3
2019-Aug-18 13:29N 74°23' E 018°48'0 0.4
2019-Aug-18 13:00N 74°23' E 018°49'2 4.2
2019-Aug-18 12:30N 74°25' E 018°44'1 1.5
2019-Aug-18 12:00N 74°26' E 018°43'1 1.6
2019-Aug-18 11:30N 74°25' E 018°44'1 1.6
2019-Aug-18 10:59N 74°24' E 018°46'2 4.5
2019-Aug-18 10:30N 74°26' E 018°41'4 7.6
2019-Aug-18 10:00N 74°29' E 018°33'5 9.4
2019-Aug-18 09:30N 74°34' E 018°26'5 9.6
2019-Aug-18 09:00N 74°38' E 018°20'5 9.9
2019-Aug-18 08:30N 74°43' E 018°14'510.0
2019-Aug-18 08:00N 74°47' E 018°07'10 9.9
2019-Aug-18 07:00N 74°57' E 017°54'105 9.8
2019-Aug-17 20:17N 76°35' E 015°28'3 9.4
2019-Aug-17 20:00N 76°38' E 015°24'5 9.4
2019-Aug-17 19:30N 76°42' E 015°16'4 8.9
2019-Aug-17 19:00N 76°47' E 015°10'5 9.0
2019-Aug-17 18:29N 76°51' E 015°03'6 6.0
2019-Aug-17 17:29N 76°56' E 014°54'0 0.0
2019-Aug-17 16:59N 76°56' E 014°54'0 0.0
2019-Aug-17 16:29N 76°56' E 014°54'0 0.0
2019-Aug-17 15:59N 76°56' E 014°54'0 0.1
2019-Aug-17 15:29N 76°56' E 014°54'0 0.1
2019-Aug-17 14:59N 76°56' E 014°54'3 6.9
2019-Aug-17 14:30N 76°57' E 015°09'5 9.4
2019-Aug-17 14:00N 76°58' E 015°30'2 4.1
2019-Aug-17 13:30N 76°58' E 015°38'0 0.2
2019-Aug-17 13:00N 76°58' E 015°39'0 0.0
2019-Aug-17 12:30N 76°58' E 015°39'0 0.0
2019-Aug-17 12:00N 76°58' E 015°39'0 0.0
2019-Aug-17 11:30N 76°58' E 015°39'0 0.0
2019-Aug-17 11:00N 76°58' E 015°39'0 0.0
2019-Aug-17 10:30N 76°58' E 015°39'0 0.0
2019-Aug-17 10:00N 76°58' E 015°39'0 0.0
2019-Aug-17 09:30N 76°58' E 015°39'0 0.0
2019-Aug-17 09:00N 76°58' E 015°39'0 0.5
2019-Aug-17 08:19N 76°58' E 015°37'1 2.9
2019-Aug-17 08:00N 76°58' E 015°41'2 4.7
2019-Aug-17 07:30N 76°60' E 015°35'0 0.4
2019-Aug-17 07:00N 76°60' E 015°36'0 0.5
2019-Aug-17 06:30N 76°60' E 015°37'1 1.3
2019-Aug-17 05:58N 77°00' E 015°35'0 0.0
2019-Aug-17 05:28N 77°00' E 015°35'0 0.0
2019-Aug-17 04:58N 77°00' E 015°35'0 0.0
2019-Aug-17 04:28N 77°00' E 015°35'0 0.0
2019-Aug-17 03:58N 77°00' E 015°35'0 0.0
2019-Aug-17 03:28N 77°00' E 015°35'0 0.0
2019-Aug-17 02:58N 77°00' E 015°35'0 0.0
2019-Aug-17 02:28N 77°00' E 015°35'0 0.0
2019-Aug-17 01:58N 77°00' E 015°35'0 0.0
2019-Aug-17 01:28N 77°00' E 015°35'0 0.0
2019-Aug-17 00:58N 77°00' E 015°35'0 0.0
2019-Aug-17 00:28N 77°00' E 015°35'0 0.0
2019-Aug-16 23:58N 77°00' E 015°35'0 0.0
2019-Aug-16 23:28N 77°00' E 015°35'0 0.0
2019-Aug-16 22:58N 77°00' E 015°35'0 0.0
2019-Aug-16 22:28N 77°00' E 015°35'0 0.0
2019-Aug-16 21:58N 77°00' E 015°35'0 0.0
2019-Aug-16 21:28N 77°00' E 015°35'0 0.0
2019-Aug-16 20:58N 77°00' E 015°35'0 0.0
2019-Aug-16 20:28N 77°00' E 015°35'0 0.0
2019-Aug-16 19:58N 77°00' E 015°35'0 0.3
2019-Aug-16 19:30N 76°60' E 015°35'4 8.2
2019-Aug-16 19:00N 76°58' E 015°18'5 9.4
2019-Aug-16 18:30N 76°57' E 014°58'3 5.0
2019-Aug-16 18:00N 76°57' E 014°47'1 2.0
2019-Aug-16 17:29N 76°56' E 014°51'1 1.9
2019-Aug-16 16:59N 76°56' E 014°55'2 3.2
2019-Aug-16 16:30N 76°57' E 015°02'4 9.0
2019-Aug-16 16:00N 76°58' E 015°21'4 7.3
2019-Aug-16 15:29N 76°58' E 015°38'1 1.9
2019-Aug-16 15:00N 76°58' E 015°41'1 1.2
2019-Aug-16 14:29N 76°58' E 015°39'0 0.8
2019-Aug-16 14:00N 76°58' E 015°37'1 1.9
2019-Aug-16 13:30N 76°59' E 015°36'1 1.1
2019-Aug-16 13:00N 76°60' E 015°35'0 0.2
2019-Aug-16 12:30N 76°59' E 015°35'0 0.2
2019-Aug-16 12:00N 76°60' E 015°35'0 0.3
2019-Aug-16 11:30N 76°60' E 015°35'0 0.1
2019-Aug-16 11:00N 76°60' E 015°35'0 0.1
2019-Aug-16 10:30N 76°60' E 015°35'1 2.5
2019-Aug-16 10:00N 76°58' E 015°33'2 3.7
2019-Aug-16 09:30N 76°57' E 015°28'0 0.5
2019-Aug-16 09:00N 76°57' E 015°28'0 0.5
2019-Aug-16 08:29N 76°57' E 015°27'4 8.6
2019-Aug-16 08:00N 76°58' E 015°45'2 4.4
2019-Aug-16 07:30N 76°59' E 015°55'0 0.8
2019-Aug-16 07:00N 76°59' E 015°53'0 0.9
2019-Aug-16 06:30N 76°58' E 015°51'4 8.0
2019-Aug-16 05:59N 76°60' E 015°35'0 0.3
2019-Aug-16 05:30N 77°00' E 015°35'0 0.1
2019-Aug-16 05:00N 77°00' E 015°35'0 0.0
2019-Aug-16 04:30N 77°00' E 015°35'0 0.0
2019-Aug-16 04:00N 77°00' E 015°35'0 0.0
2019-Aug-16 03:30N 77°00' E 015°35'0 0.0
2019-Aug-16 03:00N 77°00' E 015°35'0 0.0
2019-Aug-16 02:30N 77°00' E 015°35'0 0.0
2019-Aug-16 02:00N 77°00' E 015°35'0 0.0
2019-Aug-16 01:30N 77°00' E 015°35'0 0.0
2019-Aug-16 01:00N 77°00' E 015°35'0 0.0
2019-Aug-16 00:30N 77°00' E 015°35'0 0.0
2019-Aug-16 00:00N 77°00' E 015°35'0 0.0
2019-Aug-15 23:30N 77°00' E 015°35'0 0.0
2019-Aug-15 23:00N 77°00' E 015°35'0 0.0
2019-Aug-15 22:30N 77°00' E 015°35'0 0.0
2019-Aug-15 22:00N 77°00' E 015°35'0 0.0
2019-Aug-15 21:30N 77°00' E 015°35'0 0.0
2019-Aug-15 21:00N 77°00' E 015°35'0 0.0
2019-Aug-15 20:30N 77°00' E 015°35'0 0.0
2019-Aug-15 20:00N 77°00' E 015°35'0 0.0
2019-Aug-15 19:30N 77°00' E 015°35'0 0.1
2019-Aug-15 19:00N 77°00' E 015°35'3 6.4
2019-Aug-15 18:30N 76°59' E 015°48'4 9.0
2019-Aug-15 18:00N 76°59' E 016°08'1 1.6
2019-Aug-15 17:29N 76°59' E 016°12'0 0.0
2019-Aug-15 16:59N 76°59' E 016°12'0 0.0
2019-Aug-15 16:29N 76°59' E 016°12'0 0.0
2019-Aug-15 15:59N 76°59' E 016°12'0 0.0
2019-Aug-15 15:29N 76°59' E 016°12'0 0.1
2019-Aug-15 14:59N 76°59' E 016°12'3 6.0
2019-Aug-15 14:30N 76°60' E 016°24'2 3.8
2019-Aug-15 14:00N 77°01' E 016°31'0 0.5
2019-Aug-15 13:30N 77°01' E 016°30'0 0.6
2019-Aug-15 12:59N 77°01' E 016°31'0 0.5
2019-Aug-15 12:29N 77°01' E 016°30'0 0.7
2019-Aug-15 12:00N 77°01' E 016°29'5 9.3
2019-Aug-15 11:30N 76°59' E 016°09'510.0
2019-Aug-15 11:00N 76°59' E 015°47'5 9.7
2019-Aug-15 10:30N 76°59' E 015°25'5 9.8
2019-Aug-15 10:00N 77°00' E 015°04'5 9.8
2019-Aug-15 09:30N 77°02' E 014°45'5 9.3
2019-Aug-15 08:57N 77°05' E 014°25'510.1
2019-Aug-15 08:30N 77°07' E 014°08'5 9.4
2019-Aug-15 07:56N 77°12' E 013°58'4 9.8
2019-Aug-15 07:30N 77°16' E 013°52'5 9.5
2019-Aug-15 06:59N 77°21' E 013°45'5 9.6
2019-Aug-15 06:30N 77°25' E 013°39'5 9.6
2019-Aug-15 06:00N 77°30' E 013°35'5 9.6
2019-Aug-15 05:30N 77°35' E 013°30'5 9.6
2019-Aug-15 05:00N 77°39' E 013°25'5 9.6
2019-Aug-15 04:30N 77°44' E 013°21'5 9.5
2019-Aug-15 04:00N 77°49' E 013°17'5 9.4
2019-Aug-15 03:30N 77°53' E 013°12'5 9.3
2019-Aug-15 03:00N 77°58' E 013°07'4 8.8
2019-Aug-15 02:30N 78°02' E 013°14'5 9.3
2019-Aug-15 02:00N 78°06' E 013°28'5 9.0
2019-Aug-15 01:26N 78°07' E 013°51'4 9.1
2019-Aug-15 00:57N 78°09' E 014°11'4 9.1
2019-Aug-15 00:30N 78°11' E 014°29'5 9.5
2019-Aug-14 23:57N 78°13' E 014°52'6 9.3
2019-Aug-14 23:21N 78°15' E 015°17'3 8.8
2019-Aug-14 23:00N 78°15' E 015°33'2 3.5
2019-Aug-14 22:30N 78°14' E 015°39'0 0.0
2019-Aug-14 22:00N 78°14' E 015°39'0 0.0
2019-Aug-14 21:30N 78°14' E 015°39'0 0.0
2019-Aug-14 21:00N 78°14' E 015°39'0 0.1
2019-Aug-14 20:30N 78°14' E 015°39'0 0.0
2019-Aug-14 20:00N 78°14' E 015°39'1 2.8
2019-Aug-14 19:29N 78°15' E 015°33'0 0.1
2019-Aug-14 18:59N 78°15' E 015°33'0 0.0
2019-Aug-14 18:29N 78°15' E 015°33'1 2.2
2019-Aug-14 18:00N 78°14' E 015°36'0 0.0
2019-Aug-14 17:30N 78°14' E 015°36'0 0.0
2019-Aug-14 17:00N 78°14' E 015°36'0 0.8
2019-Aug-14 16:30N 78°14' E 015°37'0 0.6
2019-Aug-14 16:00N 78°14' E 015°37'0 0.1
2019-Aug-14 15:29N 78°14' E 015°37'0 0.0
2019-Aug-14 14:59N 78°14' E 015°37'0 0.0
2019-Aug-14 14:29N 78°14' E 015°37'0 0.0
2019-Aug-14 13:59N 78°14' E 015°37'0 0.0
2019-Aug-14 13:29N 78°14' E 015°37'0 0.0
2019-Aug-14 12:59N 78°14' E 015°37'0 0.0
2019-Aug-14 12:29N 78°14' E 015°37'0 0.1
2019-Aug-14 11:59N 78°14' E 015°37'0 0.1
2019-Aug-14 11:29N 78°14' E 015°37'0 0.0
2019-Aug-14 10:59N 78°14' E 015°37'0 0.0
2019-Aug-14 10:29N 78°14' E 015°37'0 0.0
2019-Aug-14 09:59N 78°14' E 015°37'0 0.0
2019-Aug-14 09:29N 78°14' E 015°37'0 0.0
2019-Aug-14 08:59N 78°14' E 015°37'0 0.0
2019-Aug-14 08:29N 78°14' E 015°37'0 0.0
2019-Aug-14 07:59N 78°14' E 015°37'0 0.1
2019-Aug-14 07:29N 78°14' E 015°37'0 0.7
2019-Aug-14 07:00N 78°14' E 015°38'0 0.0
2019-Aug-14 06:30N 78°14' E 015°38'0 0.0
2019-Aug-14 06:00N 78°14' E 015°38'0 0.0
2019-Aug-14 05:30N 78°14' E 015°38'0 0.0
2019-Aug-14 05:00N 78°14' E 015°38'0 0.0
2019-Aug-14 04:30N 78°14' E 015°38'0 0.0
2019-Aug-14 04:00N 78°14' E 015°38'0 0.0
2019-Aug-14 03:30N 78°14' E 015°38'0 0.0
2019-Aug-14 03:00N 78°14' E 015°38'0 0.0
2019-Aug-14 02:30N 78°14' E 015°38'0 0.0
2019-Aug-14 02:00N 78°14' E 015°38'0 0.1
2019-Aug-14 01:30N 78°14' E 015°38'0 0.0
2019-Aug-14 01:00N 78°14' E 015°38'0 0.1
2019-Aug-14 00:30N 78°14' E 015°38'0 0.2
2019-Aug-14 00:00N 78°14' E 015°37'0 0.0
2019-Aug-13 23:30N 78°14' E 015°37'0 0.0
2019-Aug-13 23:00N 78°14' E 015°37'0 0.0
2019-Aug-13 22:30N 78°14' E 015°37'0 0.0
2019-Aug-13 22:00N 78°14' E 015°37'0 0.0
2019-Aug-13 21:30N 78°14' E 015°37'0 0.0
2019-Aug-13 21:00N 78°14' E 015°37'0 0.0
2019-Aug-13 20:30N 78°14' E 015°37'0 0.0
2019-Aug-13 20:00N 78°14' E 015°37'0 0.0
2019-Aug-13 19:30N 78°14' E 015°37'0 0.0
2019-Aug-13 19:00N 78°14' E 015°37'0 0.1
2019-Aug-13 18:30N 78°14' E 015°37'4 7.2
2019-Aug-13 18:00N 78°16' E 015°21'5 9.9
2019-Aug-13 17:30N 78°14' E 014°57'5 9.3
2019-Aug-13 17:00N 78°13' E 014°35'5 9.5
2019-Aug-13 16:30N 78°12' E 014°13'5 9.2
2019-Aug-13 16:00N 78°11' E 013°51'5 9.5
2019-Aug-13 15:30N 78°10' E 013°28'5 9.1
2019-Aug-13 14:58N 78°09' E 013°05'4 8.7
2019-Aug-13 14:29N 78°09' E 012°45'4 8.4
2019-Aug-13 14:00N 78°09' E 012°25'4 8.6
2019-Aug-13 13:30N 78°10' E 012°03'510.0
2019-Aug-13 13:00N 78°12' E 011°42'510.6
2019-Aug-13 12:30N 78°16' E 011°27'510.5
2019-Aug-13 12:00N 78°20' E 011°12'510.1
2019-Aug-13 11:30N 78°25' E 010°58'1010.1
2019-Aug-13 10:29N 78°33' E 010°31'510.1
2019-Aug-13 09:58N 78°38' E 010°24'14 9.8
2019-Aug-13 08:33N 78°52' E 010°20'0 9.7
2019-Aug-13 08:30N 78°53' E 010°20'4 8.9
2019-Aug-13 08:00N 78°56' E 010°36'5 9.5
2019-Aug-13 07:30N 78°58' E 010°59'5 9.3
2019-Aug-13 07:00N 78°59' E 011°23'4 8.3
2019-Aug-13 06:30N 78°58' E 011°44'3 6.7
2019-Aug-13 06:00N 78°56' E 011°56'0 0.0
2019-Aug-13 05:30N 78°56' E 011°56'0 0.0
2019-Aug-13 05:00N 78°56' E 011°56'0 0.0
2019-Aug-13 04:30N 78°56' E 011°56'0 0.0
2019-Aug-13 04:00N 78°56' E 011°56'0 0.0
2019-Aug-13 03:30N 78°56' E 011°56'0 0.0
2019-Aug-13 03:00N 78°56' E 011°56'0 0.0
2019-Aug-13 02:30N 78°56' E 011°56'0 0.0
2019-Aug-13 01:30N 78°56' E 011°56'0 0.0
2019-Aug-13 01:00N 78°56' E 011°56'0 0.0
2019-Aug-13 00:30N 78°56' E 011°56'0 0.0
2019-Aug-13 00:00N 78°56' E 011°56'0 0.0
2019-Aug-12 23:30N 78°56' E 011°56'0 0.0
2019-Aug-12 23:00N 78°56' E 011°56'0 0.0
2019-Aug-12 22:30N 78°56' E 011°56'0 0.0
2019-Aug-12 22:00N 78°56' E 011°56'0 0.0
2019-Aug-12 21:30N 78°56' E 011°56'0 0.0
2019-Aug-12 21:00N 78°56' E 011°56'0 0.0
2019-Aug-12 20:30N 78°56' E 011°56'0 0.0
2019-Aug-12 20:00N 78°56' E 011°56'0 0.0
2019-Aug-12 19:30N 78°56' E 011°56'0 0.0
2019-Aug-12 19:00N 78°56' E 011°56'0 0.0
2019-Aug-12 18:30N 78°56' E 011°56'0 0.0
2019-Aug-12 18:00N 78°56' E 011°56'0 0.0
2019-Aug-12 17:30N 78°56' E 011°56'0 0.0
2019-Aug-12 17:00N 78°56' E 011°56'0 0.0
2019-Aug-12 16:30N 78°56' E 011°56'0 0.0
2019-Aug-12 16:00N 78°56' E 011°56'0 0.0
2019-Aug-12 15:30N 78°56' E 011°56'0 0.0
2019-Aug-12 15:00N 78°56' E 011°56'0 0.0
2019-Aug-12 14:30N 78°56' E 011°56'0 0.0
2019-Aug-12 14:00N 78°56' E 011°56'0 0.0
2019-Aug-12 13:30N 78°56' E 011°56'0 0.0
2019-Aug-12 13:00N 78°56' E 011°56'0 0.0
2019-Aug-12 12:30N 78°56' E 011°56'0 0.0
2019-Aug-12 12:00N 78°56' E 011°56'0 0.0
2019-Aug-12 11:30N 78°56' E 011°56'0 0.0
2019-Aug-12 11:00N 78°56' E 011°56'0 0.0
2019-Aug-12 10:30N 78°56' E 011°56'0 0.0
2019-Aug-12 10:00N 78°56' E 011°56'0 0.0
2019-Aug-12 09:30N 78°56' E 011°56'3 5.8
2019-Aug-12 09:00N 78°59' E 011°56'1 2.8
2019-Aug-12 08:30N 78°60' E 012°00'1 3.0
2019-Aug-12 08:00N 79°00' E 011°53'4 8.1
2019-Aug-12 07:30N 79°03' E 011°36'1 1.9
2019-Aug-12 07:00N 79°02' E 011°34'1 1.9
2019-Aug-12 06:30N 79°01' E 011°31'1 1.8
2019-Aug-12 06:00N 79°01' E 011°29'1 2.1
2019-Aug-12 05:30N 78°60' E 011°26'1 1.1
2019-Aug-12 05:00N 78°59' E 011°24'1 2.5
2019-Aug-12 04:30N 79°01' E 011°24'2 3.1
2019-Aug-12 04:00N 79°00' E 011°32'2 4.3
2019-Aug-12 03:30N 78°59' E 011°41'2 4.2
2019-Aug-12 03:00N 78°58' E 011°51'2 4.2
2019-Aug-12 02:30N 78°57' E 011°60'2 4.5
2019-Aug-12 02:00N 78°55' E 012°08'2 4.6
2019-Aug-12 01:30N 78°54' E 012°18'2 3.3
2019-Aug-12 01:00N 78°53' E 012°26'0 0.2
2019-Aug-12 00:30N 78°53' E 012°26'0 1.0
2019-Aug-12 00:00N 78°54' E 012°27'0 0.2
2019-Aug-11 23:30N 78°54' E 012°28'0 0.0
2019-Aug-11 23:00N 78°54' E 012°28'0 0.0
2019-Aug-11 22:30N 78°54' E 012°28'0 0.0
2019-Aug-11 22:00N 78°54' E 012°28'1 1.9
2019-Aug-11 21:30N 78°53' E 012°30'0 0.1
2019-Aug-11 20:58N 78°53' E 012°30'0 0.0
2019-Aug-11 20:28N 78°53' E 012°30'0 0.7
2019-Aug-11 20:00N 78°53' E 012°29'3 5.7
2019-Aug-11 19:30N 78°54' E 012°16'5 9.8
2019-Aug-11 18:59N 78°57' E 011°54'1 2.4
2019-Aug-11 18:30N 78°58' E 011°49'1 1.1
2019-Aug-11 18:00N 78°58' E 011°47'0 1.0
2019-Aug-11 17:30N 78°58' E 011°45'0 0.9
2019-Aug-11 16:59N 78°59' E 011°43'1 1.6
2019-Aug-11 16:30N 78°59' E 011°39'3 5.5
2019-Aug-11 16:00N 79°00' E 011°27'0 1.0
2019-Aug-11 15:30N 79°01' E 011°26'1 1.0
2019-Aug-11 15:00N 79°00' E 011°27'0 0.5
2019-Aug-11 14:30N 78°60' E 011°27'0 0.9
2019-Aug-11 14:00N 79°00' E 011°26'0 0.9
2019-Aug-11 13:30N 79°01' E 011°26'3 6.5
2019-Aug-11 13:00N 78°59' E 011°41'4 8.4
2019-Aug-11 12:29N 78°57' E 012°01'0 0.3
2019-Aug-11 11:58N 78°57' E 012°02'0 0.0
2019-Aug-11 11:28N 78°57' E 012°02'0 0.0
2019-Aug-11 10:58N 78°57' E 012°02'0 0.0
2019-Aug-11 10:28N 78°57' E 012°02'0 0.0
2019-Aug-11 09:58N 78°57' E 012°02'0 0.0
2019-Aug-11 09:28N 78°57' E 012°02'0 0.0
2019-Aug-11 08:58N 78°57' E 012°02'0 0.0
2019-Aug-11 08:28N 78°57' E 012°02'0 0.2
2019-Aug-11 07:58N 78°57' E 012°02'0 0.1
2019-Aug-11 07:28N 78°57' E 012°01'0 0.0
2019-Aug-11 06:58N 78°57' E 012°01'0 0.0
2019-Aug-11 06:28N 78°57' E 012°01'0 0.0
2019-Aug-11 05:58N 78°57' E 012°01'0 0.0
2019-Aug-11 05:28N 78°57' E 012°01'2 4.0
2019-Aug-11 05:00N 78°56' E 011°56'0 0.1
2019-Aug-11 04:30N 78°56' E 011°56'0 0.0
2019-Aug-11 04:00N 78°56' E 011°56'0 0.1
2019-Aug-11 03:30N 78°56' E 011°56'0 0.0
2019-Aug-11 03:00N 78°56' E 011°56'0 0.0
2019-Aug-11 02:30N 78°56' E 011°56'0 0.0
2019-Aug-11 02:00N 78°56' E 011°56'0 0.0
2019-Aug-11 01:30N 78°56' E 011°56'0 0.0
2019-Aug-11 01:00N 78°56' E 011°56'0 0.0
2019-Aug-11 00:30N 78°56' E 011°56'0 0.0
2019-Aug-11 00:00N 78°56' E 011°56'0 0.0
2019-Aug-10 23:30N 78°56' E 011°56'0 0.0
2019-Aug-10 23:00N 78°56' E 011°56'0 0.0
2019-Aug-10 22:30N 78°56' E 011°56'0 0.0
2019-Aug-10 22:00N 78°56' E 011°56'0 0.0
2019-Aug-10 21:30N 78°56' E 011°56'0 0.0
2019-Aug-10 21:00N 78°56' E 011°56'0 0.0
2019-Aug-10 20:30N 78°56' E 011°56'0 0.0
2019-Aug-10 20:00N 78°56' E 011°56'0 0.0
2019-Aug-10 19:30N 78°56' E 011°56'0 0.0
2019-Aug-10 19:00N 78°56' E 011°56'0 0.0
2019-Aug-10 18:30N 78°56' E 011°56'0 0.0
2019-Aug-10 18:00N 78°56' E 011°56'0 0.0
2019-Aug-10 17:30N 78°56' E 011°56'0 0.1
2019-Aug-10 17:00N 78°56' E 011°55'0 0.0
2019-Aug-10 16:30N 78°56' E 011°55'0 0.1
2019-Aug-10 16:00N 78°56' E 011°56'1 2.9
2019-Aug-10 15:30N 78°57' E 011°54'2 4.9
2019-Aug-10 15:00N 78°60' E 011°53'1 1.9
2019-Aug-10 14:30N 78°60' E 011°58'1 1.1
2019-Aug-10 14:00N 78°60' E 012°01'0 0.0
2019-Aug-10 13:30N 78°60' E 012°01'0 0.0
2019-Aug-10 12:59N 78°60' E 012°01'0 0.7
2019-Aug-10 12:29N 78°60' E 011°59'3 6.9
2019-Aug-10 12:00N 78°57' E 012°04'2 3.4
2019-Aug-10 11:30N 78°57' E 012°13'0 0.4
2019-Aug-10 10:58N 78°57' E 012°14'0 0.0
2019-Aug-10 10:28N 78°57' E 012°14'0 0.0
2019-Aug-10 09:58N 78°57' E 012°14'0 0.1
2019-Aug-10 09:28N 78°57' E 012°14'0 0.0
2019-Aug-10 08:58N 78°57' E 012°14'0 0.1
2019-Aug-10 08:28N 78°57' E 012°14'0 0.0
2019-Aug-10 07:58N 78°57' E 012°14'0 0.0
2019-Aug-10 07:28N 78°57' E 012°14'0 0.1
2019-Aug-10 06:58N 78°57' E 012°14'0 0.1
2019-Aug-10 06:30N 78°57' E 012°14'1 2.1
2019-Aug-10 06:00N 78°56' E 012°10'0 0.8
2019-Aug-10 05:29N 78°56' E 012°08'0 0.0
2019-Aug-10 04:59N 78°56' E 012°08'0 0.0
2019-Aug-10 04:29N 78°56' E 012°08'0 0.0
2019-Aug-10 03:59N 78°56' E 012°08'0 0.1
2019-Aug-10 03:29N 78°56' E 012°08'0 0.0
2019-Aug-10 02:59N 78°56' E 012°08'0 0.0
2019-Aug-10 02:29N 78°56' E 012°08'0 0.0
2019-Aug-10 01:59N 78°56' E 012°08'0 0.0
2019-Aug-10 01:29N 78°56' E 012°08'0 0.2
2019-Aug-10 00:59N 78°56' E 012°08'0 0.3
2019-Aug-10 00:29N 78°56' E 012°07'0 0.0
2019-Aug-09 23:59N 78°56' E 012°07'0 0.0
2019-Aug-09 23:29N 78°56' E 012°07'0 0.0
2019-Aug-09 22:59N 78°56' E 012°07'0 0.1
2019-Aug-09 22:29N 78°56' E 012°07'1 2.7
2019-Aug-09 22:00N 78°55' E 012°11'2 4.0
2019-Aug-09 21:30N 78°54' E 012°20'0 0.1
2019-Aug-09 20:59N 78°54' E 012°20'0 0.0
2019-Aug-09 20:29N 78°54' E 012°20'0 0.0
2019-Aug-09 19:59N 78°54' E 012°20'0 0.6
2019-Aug-09 19:30N 78°54' E 012°19'1 1.9
2019-Aug-09 19:00N 78°55' E 012°15'2 3.3
2019-Aug-09 18:30N 78°56' E 012°09'2 4.5
2019-Aug-09 18:00N 78°57' E 012°00'1 2.1
2019-Aug-09 17:29N 78°56' E 011°58'1 1.1
2019-Aug-09 17:00N 78°56' E 011°55'3 6.3
2019-Aug-09 16:30N 78°59' E 011°52'2 3.4
2019-Aug-09 15:59N 79°01' E 011°48'1 2.2
2019-Aug-09 15:30N 79°00' E 011°45'1 2.4
2019-Aug-09 14:59N 78°59' E 011°41'1 2.0
2019-Aug-09 14:30N 78°58' E 011°38'4 7.7
2019-Aug-09 14:00N 79°00' E 011°22'3 6.5
2019-Aug-09 13:29N 79°02' E 011°08'0 0.0
2019-Aug-09 12:59N 79°02' E 011°08'0 0.0
2019-Aug-09 12:29N 79°03' E 011°08'0 0.0
2019-Aug-09 11:59N 79°03' E 011°08'0 0.0
2019-Aug-09 11:29N 79°03' E 011°08'0 0.0
2019-Aug-09 10:59N 79°02' E 011°08'0 0.0
2019-Aug-09 10:29N 79°03' E 011°08'0 0.0
2019-Aug-09 09:59N 79°03' E 011°08'0 0.0
2019-Aug-09 09:29N 79°03' E 011°08'0 0.0
2019-Aug-09 08:59N 79°03' E 011°08'0 0.0
2019-Aug-09 08:29N 79°03' E 011°08'0 0.0
2019-Aug-09 07:59N 79°03' E 011°08'0 0.1
2019-Aug-09 07:29N 79°03' E 011°08'3 6.2
2019-Aug-09 06:59N 79°01' E 011°22'3 5.4
2019-Aug-09 06:28N 78°59' E 011°34'0 0.0
2019-Aug-09 05:58N 78°59' E 011°34'0 0.0
2019-Aug-09 05:28N 78°59' E 011°34'0 0.0
2019-Aug-09 04:58N 78°59' E 011°34'0 0.0
2019-Aug-09 04:28N 78°59' E 011°34'1 1.3
2019-Aug-09 04:00N 78°60' E 011°37'3 5.7
2019-Aug-09 03:29N 78°58' E 011°51'0 0.1
2019-Aug-09 02:59N 78°58' E 011°51'0 0.0
2019-Aug-09 01:59N 78°58' E 011°51'0 0.1
2019-Aug-09 01:29N 78°58' E 011°50'0 0.2
2019-Aug-09 01:00N 78°58' E 011°51'4 7.5
2019-Aug-09 00:30N 78°60' E 011°34'3 5.8
2019-Aug-09 00:00N 79°01' E 011°20'2 4.7
2019-Aug-08 23:30N 79°02' E 011°10'2 4.6
2019-Aug-08 23:00N 79°02' E 010°58'2 4.7
2019-Aug-08 22:30N 79°01' E 010°45'2 4.8
2019-Aug-08 22:00N 79°01' E 010°34'2 4.8
2019-Aug-08 21:30N 79°00' E 010°21'2 4.9
2019-Aug-08 21:00N 78°60' E 010°09'2 4.9
2019-Aug-08 20:30N 78°59' E 009°56'2 4.8
2019-Aug-08 20:00N 78°59' E 009°44'2 4.7
2019-Aug-08 19:30N 78°59' E 009°31'  

Dump ship's entire track history